sensor_id;sensor_type;location;lat;lon;timestamp;temperature;humidity
10062;DHT22;5070;52.382;5.270;2024-03-23T00:55:27;20.20;64.10
10062;DHT22;5070;52.382;5.270;2024-03-23T00:57:53;20.10;63.90
10062;DHT22;5070;52.382;5.270;2024-03-23T01:00:20;20.10;63.90
10062;DHT22;5070;52.382;5.270;2024-03-23T01:02:46;20.10;63.90
10062;DHT22;5070;52.382;5.270;2024-03-23T01:05:13;20.10;63.90
10062;DHT22;5070;52.382;5.270;2024-03-23T01:07:39;20.10;63.90
10062;DHT22;5070;52.382;5.270;2024-03-23T01:10:07;20.10;63.80
10062;DHT22;5070;52.382;5.270;2024-03-23T01:12:34;20.10;63.90
10062;DHT22;5070;52.382;5.270;2024-03-23T01:15:02;20.10;63.90
10062;DHT22;5070;52.382;5.270;2024-03-23T01:17:30;20.00;63.80
10062;DHT22;5070;52.382;5.270;2024-03-23T01:19:58;20.00;63.70
10062;DHT22;5070;52.382;5.270;2024-03-23T01:22:33;20.00;63.80
10062;DHT22;5070;52.382;5.270;2024-03-23T01:25:00;20.00;63.70
10062;DHT22;5070;52.382;5.270;2024-03-23T01:27:26;20.00;63.60
10062;DHT22;5070;52.382;5.270;2024-03-23T01:29:54;19.90;63.60
10062;DHT22;5070;52.382;5.270;2024-03-23T01:32:21;19.90;63.50
10062;DHT22;5070;52.382;5.270;2024-03-23T01:34:48;19.90;63.50
10062;DHT22;5070;52.382;5.270;2024-03-23T01:37:14;19.90;63.50
10062;DHT22;5070;52.382;5.270;2024-03-23T01:39:41;19.90;63.50
10062;DHT22;5070;52.382;5.270;2024-03-23T01:42:07;19.90;63.50
10062;DHT22;5070;52.382;5.270;2024-03-23T01:44:34;19.90;63.40
10062;DHT22;5070;52.382;5.270;2024-03-23T01:47:01;19.80;63.30
10062;DHT22;5070;52.382;5.270;2024-03-23T01:49:28;19.80;63.30
10062;DHT22;5070;52.382;5.270;2024-03-23T01:51:55;19.80;63.30
10062;DHT22;5070;52.382;5.270;2024-03-23T01:54:23;19.80;63.30
10062;DHT22;5070;52.382;5.270;2024-03-23T01:56:49;19.80;63.30
10062;DHT22;5070;52.382;5.270;2024-03-23T01:59:16;19.80;63.20
10062;DHT22;5070;52.382;5.270;2024-03-23T02:01:43;19.80;63.20
10062;DHT22;5070;52.382;5.270;2024-03-23T02:04:11;19.70;63.10
10062;DHT22;5070;52.382;5.270;2024-03-23T02:06:37;19.70;63.00
10062;DHT22;5070;52.382;5.270;2024-03-23T02:09:04;19.70;63.10
10062;DHT22;5070;52.382;5.270;2024-03-23T02:11:31;19.70;63.20
10062;DHT22;5070;52.382;5.270;2024-03-23T02:13:58;19.60;63.20
10062;DHT22;5070;52.382;5.270;2024-03-23T02:16:24;19.60;63.10
10062;DHT22;5070;52.382;5.270;2024-03-23T02:18:51;19.60;63.10
10062;DHT22;5070;52.382;5.270;2024-03-23T02:21:18;19.60;63.00
10062;DHT22;5070;52.382;5.270;2024-03-23T02:23:47;19.60;63.00
10062;DHT22;5070;52.382;5.270;2024-03-23T02:26:13;19.60;63.00
10062;DHT22;5070;52.382;5.270;2024-03-23T02:28:41;19.60;63.00
10062;DHT22;5070;52.382;5.270;2024-03-23T02:31:07;19.50;62.90
10062;DHT22;5070;52.382;5.270;2024-03-23T02:33:34;19.50;62.80
10062;DHT22;5070;52.382;5.270;2024-03-23T02:36:04;19.50;62.80
10062;DHT22;5070;52.382;5.270;2024-03-23T02:38:31;19.50;62.80
10062;DHT22;5070;52.382;5.270;2024-03-23T02:41:03;19.50;62.80
10062;DHT22;5070;52.382;5.270;2024-03-23T02:43:30;19.40;62.80
10062;DHT22;5070;52.382;5.270;2024-03-23T02:45:56;19.40;62.70
10062;DHT22;5070;52.382;5.270;2024-03-23T02:48:23;19.40;62.70
10062;DHT22;5070;52.382;5.270;2024-03-23T02:50:49;19.40;62.70
10062;DHT22;5070;52.382;5.270;2024-03-23T02:53:16;19.40;62.70
10062;DHT22;5070;52.382;5.270;2024-03-23T02:55:43;19.40;62.70
10062;DHT22;5070;52.382;5.270;2024-03-23T02:58:11;19.40;62.70
10062;DHT22;5070;52.382;5.270;2024-03-23T03:00:37;19.40;62.50
10062;DHT22;5070;52.382;5.270;2024-03-23T03:03:04;19.30;62.50
10062;DHT22;5070;52.382;5.270;2024-03-23T03:05:31;19.30;62.50
10062;DHT22;5070;52.382;5.270;2024-03-23T03:07:58;19.30;62.50
10062;DHT22;5070;52.382;5.270;2024-03-23T03:10:26;19.30;62.40
10062;DHT22;5070;52.382;5.270;2024-03-23T03:13:06;19.30;62.30
10062;DHT22;5070;52.382;5.270;2024-03-23T03:15:34;19.30;62.30
10062;DHT22;5070;52.382;5.270;2024-03-23T03:18:01;19.30;62.40
10062;DHT22;5070;52.382;5.270;2024-03-23T03:20:27;19.20;62.30
10062;DHT22;5070;52.382;5.270;2024-03-23T03:22:57;19.20;62.30
10062;DHT22;5070;52.382;5.270;2024-03-23T03:25:23;19.20;62.20
10062;DHT22;5070;52.382;5.270;2024-03-23T03:27:50;19.20;62.10
10062;DHT22;5070;52.382;5.270;2024-03-23T03:30:16;19.20;62.00
10062;DHT22;5070;52.382;5.270;2024-03-23T03:32:45;19.20;62.00
10062;DHT22;5070;52.382;5.270;2024-03-23T03:35:11;19.20;62.00
10062;DHT22;5070;52.382;5.270;2024-03-23T03:37:38;19.20;61.90
10062;DHT22;5070;52.382;5.270;2024-03-23T03:40:05;19.10;61.80
10062;DHT22;5070;52.382;5.270;2024-03-23T03:42:34;19.10;62.00
10062;DHT22;5070;52.382;5.270;2024-03-23T03:45:00;19.10;61.90
10062;DHT22;5070;52.382;5.270;2024-03-23T03:47:27;19.10;61.90
10062;DHT22;5070;52.382;5.270;2024-03-23T03:49:55;19.10;61.90
10062;DHT22;5070;52.382;5.270;2024-03-23T03:52:22;19.10;61.90
10062;DHT22;5070;52.382;5.270;2024-03-23T03:54:48;19.00;61.80
10062;DHT22;5070;52.382;5.270;2024-03-23T03:57:15;19.00;61.80
10062;DHT22;5070;52.382;5.270;2024-03-23T03:59:41;19.00;61.80
10062;DHT22;5070;52.382;5.270;2024-03-23T04:02:11;19.00;61.70
10062;DHT22;5070;52.382;5.270;2024-03-23T04:04:39;19.00;61.70
10062;DHT22;5070;52.382;5.270;2024-03-23T04:07:07;19.00;61.80
10062;DHT22;5070;52.382;5.270;2024-03-23T04:09:33;18.90;61.80
10062;DHT22;5070;52.382;5.270;2024-03-23T04:12:00;19.00;61.80
10062;DHT22;5070;52.382;5.270;2024-03-23T04:14:26;18.90;61.60
10062;DHT22;5070;52.382;5.270;2024-03-23T04:16:53;18.90;61.60
10062;DHT22;5070;52.382;5.270;2024-03-23T04:19:19;18.90;61.60
10062;DHT22;5070;52.382;5.270;2024-03-23T04:21:46;18.90;61.50
10062;DHT22;5070;52.382;5.270;2024-03-23T04:24:13;18.90;61.50
10062;DHT22;5070;52.382;5.270;2024-03-23T04:26:41;18.90;61.40
10062;DHT22;5070;52.382;5.270;2024-03-23T04:29:07;18.90;61.40
10062;DHT22;5070;52.382;5.270;2024-03-23T04:31:34;18.90;61.30
10062;DHT22;5070;52.382;5.270;2024-03-23T04:34:02;18.90;61.30
10062;DHT22;5070;52.382;5.270;2024-03-23T04:36:31;18.90;61.30
10062;DHT22;5070;52.382;5.270;2024-03-23T04:38:59;18.90;61.30
10062;DHT22;5070;52.382;5.270;2024-03-23T04:41:27;18.80;61.10
10062;DHT22;5070;52.382;5.270;2024-03-23T04:43:55;18.80;61.10
10062;DHT22;5070;52.382;5.270;2024-03-23T04:46:22;18.80;61.20
10062;DHT22;5070;52.382;5.270;2024-03-23T04:48:49;18.80;61.10
10062;DHT22;5070;52.382;5.270;2024-03-23T04:51:22;18.80;61.10
10062;DHT22;5070;52.382;5.270;2024-03-23T04:53:50;18.80;61.10
10062;DHT22;5070;52.382;5.270;2024-03-23T04:56:17;18.70;61.10
10062;DHT22;5070;52.382;5.270;2024-03-23T04:58:45;18.70;61.10
10062;DHT22;5070;52.382;5.270;2024-03-23T05:01:12;18.70;61.10
10062;DHT22;5070;52.382;5.270;2024-03-23T05:03:39;18.70;61.10
10062;DHT22;5070;52.382;5.270;2024-03-23T05:06:05;18.70;60.90
10062;DHT22;5070;52.382;5.270;2024-03-23T05:08:32;18.70;61.00
10062;DHT22;5070;52.382;5.270;2024-03-23T05:10:58;18.70;61.00
10062;DHT22;5070;52.382;5.270;2024-03-23T05:13:25;18.70;60.90
10062;DHT22;5070;52.382;5.270;2024-03-23T05:15:53;18.70;61.00
10062;DHT22;5070;52.382;5.270;2024-03-23T05:18:21;18.60;60.90
10062;DHT22;5070;52.382;5.270;2024-03-23T05:20:47;18.60;60.80
10062;DHT22;5070;52.382;5.270;2024-03-23T05:23:14;18.60;60.80
10062;DHT22;5070;52.382;5.270;2024-03-23T05:25:41;18.60;60.90
10062;DHT22;5070;52.382;5.270;2024-03-23T05:28:08;18.60;60.80
10062;DHT22;5070;52.382;5.270;2024-03-23T05:30:34;18.60;60.70
10062;DHT22;5070;52.382;5.270;2024-03-23T05:33:02;18.60;60.60
10062;DHT22;5070;52.382;5.270;2024-03-23T05:35:31;18.60;61.30
10062;DHT22;5070;52.382;5.270;2024-03-23T05:37:59;18.60;60.50
10062;DHT22;5070;52.382;5.270;2024-03-23T05:40:26;18.60;60.60
10062;DHT22;5070;52.382;5.270;2024-03-23T05:42:53;18.60;60.80
10062;DHT22;5070;52.382;5.270;2024-03-23T05:45:19;18.60;60.80
10062;DHT22;5070;52.382;5.270;2024-03-23T05:47:46;18.70;60.90
10062;DHT22;5070;52.382;5.270;2024-03-23T05:50:14;18.80;61.00
10062;DHT22;5070;52.382;5.270;2024-03-23T05:52:41;18.80;60.50
10062;DHT22;5070;52.382;5.270;2024-03-23T05:55:12;18.90;60.40
10062;DHT22;5070;52.382;5.270;2024-03-23T05:57:39;18.90;60.60
10062;DHT22;5070;52.382;5.270;2024-03-23T06:00:06;19.00;60.60
10062;DHT22;5070;52.382;5.270;2024-03-23T06:02:37;19.00;60.40
10062;DHT22;5070;52.382;5.270;2024-03-23T06:05:04;19.10;60.40
10062;DHT22;5070;52.382;5.270;2024-03-23T06:07:32;19.10;60.20
10062;DHT22;5070;52.382;5.270;2024-03-23T06:09:58;19.10;60.20
10062;DHT22;5070;52.382;5.270;2024-03-23T06:12:28;19.10;60.00
10062;DHT22;5070;52.382;5.270;2024-03-23T06:14:57;19.20;60.00
10062;DHT22;5070;52.382;5.270;2024-03-23T06:17:24;19.20;60.00
10062;DHT22;5070;52.382;5.270;2024-03-23T06:19:50;19.20;60.00
10062;DHT22;5070;52.382;5.270;2024-03-23T06:22:17;19.30;59.90
10062;DHT22;5070;52.382;5.270;2024-03-23T06:24:45;19.30;59.80
10062;DHT22;5070;52.382;5.270;2024-03-23T06:27:12;19.40;59.70
10062;DHT22;5070;52.382;5.270;2024-03-23T06:29:41;19.40;59.70
10062;DHT22;5070;52.382;5.270;2024-03-23T06:32:11;19.40;59.60
10062;DHT22;5070;52.382;5.270;2024-03-23T06:34:41;19.50;59.50
10062;DHT22;5070;52.382;5.270;2024-03-23T06:37:08;19.50;59.40
10062;DHT22;5070;52.382;5.270;2024-03-23T06:39:35;19.60;59.40
10062;DHT22;5070;52.382;5.270;2024-03-23T06:42:04;19.60;59.80
10062;DHT22;5070;52.382;5.270;2024-03-23T06:44:34;19.70;59.20
10062;DHT22;5070;52.382;5.270;2024-03-23T06:47:01;19.70;59.10
10062;DHT22;5070;52.382;5.270;2024-03-23T06:49:28;19.80;59.10
10062;DHT22;5070;52.382;5.270;2024-03-23T06:51:55;19.80;59.00
10062;DHT22;5070;52.382;5.270;2024-03-23T06:54:21;19.80;58.90
10062;DHT22;5070;52.382;5.270;2024-03-23T06:56:50;19.90;58.80
10062;DHT22;5070;52.382;5.270;2024-03-23T06:59:18;19.90;58.70
10062;DHT22;5070;52.382;5.270;2024-03-23T07:01:45;20.00;58.70
10062;DHT22;5070;52.382;5.270;2024-03-23T07:04:11;20.00;58.60
10062;DHT22;5070;52.382;5.270;2024-03-23T07:06:42;20.00;58.60
10062;DHT22;5070;52.382;5.270;2024-03-23T07:09:09;20.00;58.50
10062;DHT22;5070;52.382;5.270;2024-03-23T07:11:36;20.10;58.50
10062;DHT22;5070;52.382;5.270;2024-03-23T07:14:02;20.10;58.40
10062;DHT22;5070;52.382;5.270;2024-03-23T07:16:30;20.10;58.30
10062;DHT22;5070;52.382;5.270;2024-03-23T07:18:57;20.20;58.30
10062;DHT22;5070;52.382;5.270;2024-03-23T07:21:24;20.20;58.30
10062;DHT22;5070;52.382;5.270;2024-03-23T07:23:50;20.30;58.10
10062;DHT22;5070;52.382;5.270;2024-03-23T07:26:17;20.30;58.00
10062;DHT22;5070;52.382;5.270;2024-03-23T07:28:44;20.40;58.00
10062;DHT22;5070;52.382;5.270;2024-03-23T07:31:13;20.40;58.40
10062;DHT22;5070;52.382;5.270;2024-03-23T07:33:44;20.40;57.90
10062;DHT22;5070;52.382;5.270;2024-03-23T07:36:12;20.40;58.00
10062;DHT22;5070;52.382;5.270;2024-03-23T07:38:40;20.30;58.10
10062;DHT22;5070;52.382;5.270;2024-03-23T07:41:08;20.30;58.10
10062;DHT22;5070;52.382;5.270;2024-03-23T07:43:35;20.30;58.30
10062;DHT22;5070;52.382;5.270;2024-03-23T07:46:04;20.20;58.60
10062;DHT22;5070;52.382;5.270;2024-03-23T07:48:31;20.20;60.00
10062;DHT22;5070;52.382;5.270;2024-03-23T07:51:01;20.20;60.00
10062;DHT22;5070;52.382;5.270;2024-03-23T07:53:27;20.20;59.50
10062;DHT22;5070;52.382;5.270;2024-03-23T07:55:55;20.20;59.10
10062;DHT22;5070;52.382;5.270;2024-03-23T07:58:21;20.20;58.90
10062;DHT22;5070;52.382;5.270;2024-03-23T08:00:48;20.20;58.30
10062;DHT22;5070;52.382;5.270;2024-03-23T08:03:15;20.10;58.30
10062;DHT22;5070;52.382;5.270;2024-03-23T08:05:42;20.20;58.40
10062;DHT22;5070;52.382;5.270;2024-03-23T08:08:10;20.10;58.20
10062;DHT22;5070;52.382;5.270;2024-03-23T08:10:36;20.10;58.10
10062;DHT22;5070;52.382;5.270;2024-03-23T08:13:04;20.10;58.10
10062;DHT22;5070;52.382;5.270;2024-03-23T08:15:31;20.10;58.10
10062;DHT22;5070;52.382;5.270;2024-03-23T08:18:00;20.10;58.20
10062;DHT22;5070;52.382;5.270;2024-03-23T08:20:26;20.10;58.00
10062;DHT22;5070;52.382;5.270;2024-03-23T08:22:53;20.10;58.00
10062;DHT22;5070;52.382;5.270;2024-03-23T08:25:23;20.10;57.90
10062;DHT22;5070;52.382;5.270;2024-03-23T08:27:51;20.10;57.80
10062;DHT22;5070;52.382;5.270;2024-03-23T08:30:17;20.10;57.70
10062;DHT22;5070;52.382;5.270;2024-03-23T08:32:44;20.10;57.60
10062;DHT22;5070;52.382;5.270;2024-03-23T08:35:12;20.10;57.60
10062;DHT22;5070;52.382;5.270;2024-03-23T08:37:42;20.10;57.50
10062;DHT22;5070;52.382;5.270;2024-03-23T08:40:08;20.10;57.50
10062;DHT22;5070;52.382;5.270;2024-03-23T08:42:37;20.10;57.40
10062;DHT22;5070;52.382;5.270;2024-03-23T08:45:04;20.10;57.30
10062;DHT22;5070;52.382;5.270;2024-03-23T08:47:34;20.10;57.20
10062;DHT22;5070;52.382;5.270;2024-03-23T08:50:00;20.10;57.10
10062;DHT22;5070;52.382;5.270;2024-03-23T08:52:28;20.00;57.10
10062;DHT22;5070;52.382;5.270;2024-03-23T08:54:55;20.00;57.20
10062;DHT22;5070;52.382;5.270;2024-03-23T08:57:23;20.00;57.10
10062;DHT22;5070;52.382;5.270;2024-03-23T08:59:50;20.00;57.20
10062;DHT22;5070;52.382;5.270;2024-03-23T09:02:17;20.00;57.20
10062;DHT22;5070;52.382;5.270;2024-03-23T09:04:44;19.90;57.20
10062;DHT22;5070;52.382;5.270;2024-03-23T09:07:11;19.90;57.50
10062;DHT22;5070;52.382;5.270;2024-03-23T09:09:38;19.90;57.70
10062;DHT22;5070;52.382;5.270;2024-03-23T09:12:11;19.90;57.80
10062;DHT22;5070;52.382;5.270;2024-03-23T09:14:37;19.80;57.70
10062;DHT22;5070;52.382;5.270;2024-03-23T09:17:06;19.80;57.70
10062;DHT22;5070;52.382;5.270;2024-03-23T09:19:32;19.80;57.50
10062;DHT22;5070;52.382;5.270;2024-03-23T09:21:59;19.80;57.50
10062;DHT22;5070;52.382;5.270;2024-03-23T09:24:25;19.80;57.50
10062;DHT22;5070;52.382;5.270;2024-03-23T09:26:52;19.80;57.70
10062;DHT22;5070;52.382;5.270;2024-03-23T09:29:18;19.80;58.10
10062;DHT22;5070;52.382;5.270;2024-03-23T09:31:46;19.70;58.50
10062;DHT22;5070;52.382;5.270;2024-03-23T09:34:16;19.70;58.00
10062;DHT22;5070;52.382;5.270;2024-03-23T09:36:43;19.70;58.00
10062;DHT22;5070;52.382;5.270;2024-03-23T09:39:09;19.80;58.20
10062;DHT22;5070;52.382;5.270;2024-03-23T09:41:36;19.80;58.10
10062;DHT22;5070;52.382;5.270;2024-03-23T09:44:02;19.80;57.80
10062;DHT22;5070;52.382;5.270;2024-03-23T09:46:30;19.90;57.30
10062;DHT22;5070;52.382;5.270;2024-03-23T09:49:03;19.90;57.20
10062;DHT22;5070;52.382;5.270;2024-03-23T09:51:32;19.90;57.40
10062;DHT22;5070;52.382;5.270;2024-03-23T09:53:58;20.00;57.50
10062;DHT22;5070;52.382;5.270;2024-03-23T09:56:27;20.00;57.40
10062;DHT22;5070;52.382;5.270;2024-03-23T09:59:00;20.00;57.50
10062;DHT22;5070;52.382;5.270;2024-03-23T10:01:29;20.00;57.70
10062;DHT22;5070;52.382;5.270;2024-03-23T10:03:55;20.00;58.30
10062;DHT22;5070;52.382;5.270;2024-03-23T10:06:23;20.00;58.50
10062;DHT22;5070;52.382;5.270;2024-03-23T10:08:52;20.00;58.20
10062;DHT22;5070;52.382;5.270;2024-03-23T10:11:20;20.00;58.20
10062;DHT22;5070;52.382;5.270;2024-03-23T10:13:47;20.10;58.00
10062;DHT22;5070;52.382;5.270;2024-03-23T10:16:21;20.10;58.00
10062;DHT22;5070;52.382;5.270;2024-03-23T10:18:48;20.10;57.80
10062;DHT22;5070;52.382;5.270;2024-03-23T10:21:16;20.00;57.70
10062;DHT22;5070;52.382;5.270;2024-03-23T10:23:43;20.00;57.60
10062;DHT22;5070;52.382;5.270;2024-03-23T10:26:16;19.90;57.90
10062;DHT22;5070;52.382;5.270;2024-03-23T10:28:54;19.90;58.20
10062;DHT22;5070;52.382;5.270;2024-03-23T10:31:22;19.90;58.70
10062;DHT22;5070;52.382;5.270;2024-03-23T10:33:49;20.10;70.60
10062;DHT22;5070;52.382;5.270;2024-03-23T10:36:16;20.10;64.90
10062;DHT22;5070;52.382;5.270;2024-03-23T10:38:44;20.20;63.20
10062;DHT22;5070;52.382;5.270;2024-03-23T10:41:16;20.20;61.90
10062;DHT22;5070;52.382;5.270;2024-03-23T10:43:43;20.20;61.60
10062;DHT22;5070;52.382;5.270;2024-03-23T10:46:12;20.30;61.10
10062;DHT22;5070;52.382;5.270;2024-03-23T10:48:38;20.30;60.50
10062;DHT22;5070;52.382;5.270;2024-03-23T10:51:07;20.30;60.00
10062;DHT22;5070;52.382;5.270;2024-03-23T10:53:34;20.30;59.70
10062;DHT22;5070;52.382;5.270;2024-03-23T10:56:03;20.30;59.50
10062;DHT22;5070;52.382;5.270;2024-03-23T10:58:38;20.40;59.40
10062;DHT22;5070;52.382;5.270;2024-03-23T11:01:05;20.40;59.30
10062;DHT22;5070;52.382;5.270;2024-03-23T11:03:33;20.40;59.40
10062;DHT22;5070;52.382;5.270;2024-03-23T11:06:00;20.30;60.40
10062;DHT22;5070;52.382;5.270;2024-03-23T11:08:31;20.30;60.10
10062;DHT22;5070;52.382;5.270;2024-03-23T11:11:28;20.30;59.90
10062;DHT22;5070;52.382;5.270;2024-03-23T11:13:59;20.40;59.50
10062;DHT22;5070;52.382;5.270;2024-03-23T11:16:27;20.50;59.20
10062;DHT22;5070;52.382;5.270;2024-03-23T11:18:54;20.50;59.00
10062;DHT22;5070;52.382;5.270;2024-03-23T11:21:52;20.60;58.90
10062;DHT22;5070;52.382;5.270;2024-03-23T11:24:19;20.60;58.50
10062;DHT22;5070;52.382;5.270;2024-03-23T11:26:46;20.70;58.70
10062;DHT22;5070;52.382;5.270;2024-03-23T11:29:17;20.70;59.00
10062;DHT22;5070;52.382;5.270;2024-03-23T11:31:48;20.80;59.00
10062;DHT22;5070;52.382;5.270;2024-03-23T11:34:18;20.80;58.90
10062;DHT22;5070;52.382;5.270;2024-03-23T11:36:46;20.80;58.50
10062;DHT22;5070;52.382;5.270;2024-03-23T11:39:25;20.70;58.90
10062;DHT22;5070;52.382;5.270;2024-03-23T11:41:53;20.70;58.30
10062;DHT22;5070;52.382;5.270;2024-03-23T11:44:21;20.70;58.30
10062;DHT22;5070;52.382;5.270;2024-03-23T11:46:49;20.70;58.20
10062;DHT22;5070;52.382;5.270;2024-03-23T11:49:22;20.70;58.20
10062;DHT22;5070;52.382;5.270;2024-03-23T11:51:50;20.70;58.20
10062;DHT22;5070;52.382;5.270;2024-03-23T11:54:19;20.70;58.20
10062;DHT22;5070;52.382;5.270;2024-03-23T11:56:57;20.70;58.00
10062;DHT22;5070;52.382;5.270;2024-03-23T11:59:32;20.70;57.80
10062;DHT22;5070;52.382;5.270;2024-03-23T12:02:06;20.80;57.60
10062;DHT22;5070;52.382;5.270;2024-03-23T12:04:33;20.80;57.50
10062;DHT22;5070;52.382;5.270;2024-03-23T12:07:15;20.80;57.60
10062;DHT22;5070;52.382;5.270;2024-03-23T12:09:42;20.70;57.50
10062;DHT22;5070;52.382;5.270;2024-03-23T12:12:13;20.70;57.70
10062;DHT22;5070;52.382;5.270;2024-03-23T12:14:42;20.70;57.80
10062;DHT22;5070;52.382;5.270;2024-03-23T12:17:10;20.60;57.80
10062;DHT22;5070;52.382;5.270;2024-03-23T12:19:37;20.60;57.80
10062;DHT22;5070;52.382;5.270;2024-03-23T12:22:04;20.60;57.80
10062;DHT22;5070;52.382;5.270;2024-03-23T12:24:31;20.60;57.60
10062;DHT22;5070;52.382;5.270;2024-03-23T12:27:01;20.60;57.70
10062;DHT22;5070;52.382;5.270;2024-03-23T12:29:29;20.60;57.80
10062;DHT22;5070;52.382;5.270;2024-03-23T12:31:59;20.50;57.70
10062;DHT22;5070;52.382;5.270;2024-03-23T12:34:34;20.50;57.90
10062;DHT22;5070;52.382;5.270;2024-03-23T12:37:01;20.50;58.00
10062;DHT22;5070;52.382;5.270;2024-03-23T12:39:28;20.40;57.60
10062;DHT22;5070;52.382;5.270;2024-03-23T12:41:55;20.40;57.30
10062;DHT22;5070;52.382;5.270;2024-03-23T12:44:21;20.40;57.60
10062;DHT22;5070;52.382;5.270;2024-03-23T12:46:48;20.30;57.70
10062;DHT22;5070;52.382;5.270;2024-03-23T12:49:15;20.30;57.90
10062;DHT22;5070;52.382;5.270;2024-03-23T12:51:51;20.30;57.80
10062;DHT22;5070;52.382;5.270;2024-03-23T12:54:19;20.30;57.90
10062;DHT22;5070;52.382;5.270;2024-03-23T12:56:46;20.30;57.70
10062;DHT22;5070;52.382;5.270;2024-03-23T12:59:12;20.20;57.70
10062;DHT22;5070;52.382;5.270;2024-03-23T13:01:39;20.30;57.70
10062;DHT22;5070;52.382;5.270;2024-03-23T13:04:06;20.30;57.80
10062;DHT22;5070;52.382;5.270;2024-03-23T13:06:35;20.40;57.60
10062;DHT22;5070;52.382;5.270;2024-03-23T13:09:01;20.40;57.00
10062;DHT22;5070;52.382;5.270;2024-03-23T13:11:29;20.50;56.60
10062;DHT22;5070;52.382;5.270;2024-03-23T13:13:55;20.60;56.50
10062;DHT22;5070;52.382;5.270;2024-03-23T13:16:22;20.60;56.40
10062;DHT22;5070;52.382;5.270;2024-03-23T13:18:48;20.60;56.50
10062;DHT22;5070;52.382;5.270;2024-03-23T13:21:16;20.60;56.70
10062;DHT22;5070;52.382;5.270;2024-03-23T13:23:46;20.60;56.70
10062;DHT22;5070;52.382;5.270;2024-03-23T13:26:14;20.60;56.80
10062;DHT22;5070;52.382;5.270;2024-03-23T13:28:42;20.60;56.80
10062;DHT22;5070;52.382;5.270;2024-03-23T13:31:10;20.60;56.80
10062;DHT22;5070;52.382;5.270;2024-03-23T13:33:36;20.60;56.50
10062;DHT22;5070;52.382;5.270;2024-03-23T13:36:04;20.60;56.60
10062;DHT22;5070;52.382;5.270;2024-03-23T13:38:33;20.60;56.80
10062;DHT22;5070;52.382;5.270;2024-03-23T13:41:02;20.60;56.80
10062;DHT22;5070;52.382;5.270;2024-03-23T13:43:30;20.60;56.70
10062;DHT22;5070;52.382;5.270;2024-03-23T13:45:58;20.60;56.90
10062;DHT22;5070;52.382;5.270;2024-03-23T13:48:26;20.60;57.40
10062;DHT22;5070;52.382;5.270;2024-03-23T13:50:59;20.60;56.30
10062;DHT22;5070;52.382;5.270;2024-03-23T13:53:25;20.60;56.00
10062;DHT22;5070;52.382;5.270;2024-03-23T13:55:52;20.70;56.00
10062;DHT22;5070;52.382;5.270;2024-03-23T13:58:20;20.70;55.90
10062;DHT22;5070;52.382;5.270;2024-03-23T14:00:47;20.80;55.70
10062;DHT22;5070;52.382;5.270;2024-03-23T14:03:14;20.80;55.50
10062;DHT22;5070;52.382;5.270;2024-03-23T14:05:42;20.80;55.40
10062;DHT22;5070;52.382;5.270;2024-03-23T14:08:08;20.90;55.30
10062;DHT22;5070;52.382;5.270;2024-03-23T14:10:36;20.90;55.20
10062;DHT22;5070;52.382;5.270;2024-03-23T14:13:05;20.80;55.30
10062;DHT22;5070;52.382;5.270;2024-03-23T14:15:36;20.80;55.40
10062;DHT22;5070;52.382;5.270;2024-03-23T14:18:03;20.80;55.50
10062;DHT22;5070;52.382;5.270;2024-03-23T14:20:30;20.80;55.60
10062;DHT22;5070;52.382;5.270;2024-03-23T14:22:56;20.70;55.80
10062;DHT22;5070;52.382;5.270;2024-03-23T14:25:23;20.70;55.80
10062;DHT22;5070;52.382;5.270;2024-03-23T14:27:53;20.70;55.90
10062;DHT22;5070;52.382;5.270;2024-03-23T14:30:20;20.70;56.10
10062;DHT22;5070;52.382;5.270;2024-03-23T14:32:48;20.70;56.20
10062;DHT22;5070;52.382;5.270;2024-03-23T14:35:15;20.70;56.40
10062;DHT22;5070;52.382;5.270;2024-03-23T14:37:41;20.70;56.10
10062;DHT22;5070;52.382;5.270;2024-03-23T14:40:09;20.80;56.00
10062;DHT22;5070;52.382;5.270;2024-03-23T14:42:37;20.80;56.00
10062;DHT22;5070;52.382;5.270;2024-03-23T14:45:05;20.70;56.10
10062;DHT22;5070;52.382;5.270;2024-03-23T14:47:31;20.70;56.40
10062;DHT22;5070;52.382;5.270;2024-03-23T14:49:59;20.70;57.00
10062;DHT22;5070;52.382;5.270;2024-03-23T14:52:26;20.70;56.60
10062;DHT22;5070;52.382;5.270;2024-03-23T14:54:54;20.80;55.70
10062;DHT22;5070;52.382;5.270;2024-03-23T14:57:22;20.90;57.20
10062;DHT22;5070;52.382;5.270;2024-03-23T14:59:49;21.00;55.70
10062;DHT22;5070;52.382;5.270;2024-03-23T15:02:15;21.10;55.10
10062;DHT22;5070;52.382;5.270;2024-03-23T15:04:42;21.10;55.20
10062;DHT22;5070;52.382;5.270;2024-03-23T15:07:11;21.00;55.50
10062;DHT22;5070;52.382;5.270;2024-03-23T15:09:38;21.00;55.20
10062;DHT22;5070;52.382;5.270;2024-03-23T15:12:05;21.00;55.00
10062;DHT22;5070;52.382;5.270;2024-03-23T15:14:33;21.00;54.90
10062;DHT22;5070;52.382;5.270;2024-03-23T15:17:00;20.90;54.90
10062;DHT22;5070;52.382;5.270;2024-03-23T15:19:30;20.90;55.00
10062;DHT22;5070;52.382;5.270;2024-03-23T15:21:56;20.90;65.70
10062;DHT22;5070;52.382;5.270;2024-03-23T15:24:25;21.10;60.60
10062;DHT22;5070;52.382;5.270;2024-03-23T15:26:51;21.10;59.00
10062;DHT22;5070;52.382;5.270;2024-03-23T15:29:20;21.10;58.50
10062;DHT22;5070;52.382;5.270;2024-03-23T15:31:48;21.00;58.00
10062;DHT22;5070;52.382;5.270;2024-03-23T15:34:18;21.00;57.80
10062;DHT22;5070;52.382;5.270;2024-03-23T15:36:45;21.00;57.60
10062;DHT22;5070;52.382;5.270;2024-03-23T15:39:12;21.00;58.00
10062;DHT22;5070;52.382;5.270;2024-03-23T15:41:40;21.00;58.00
10062;DHT22;5070;52.382;5.270;2024-03-23T15:44:07;21.00;58.50
10062;DHT22;5070;52.382;5.270;2024-03-23T15:46:34;21.00;58.30
10062;DHT22;5070;52.382;5.270;2024-03-23T15:49:01;20.90;58.10
10062;DHT22;5070;52.382;5.270;2024-03-23T15:51:27;20.90;58.10
10062;DHT22;5070;52.382;5.270;2024-03-23T15:53:58;20.90;58.20
10062;DHT22;5070;52.382;5.270;2024-03-23T15:56:24;21.00;57.90
10062;DHT22;5070;52.382;5.270;2024-03-23T15:58:53;20.90;57.50
10062;DHT22;5070;52.382;5.270;2024-03-23T16:01:19;20.90;57.80
10062;DHT22;5070;52.382;5.270;2024-03-23T16:03:46;21.00;99.90
10062;DHT22;5070;52.382;5.270;2024-03-23T16:06:12;21.10;66.70
10062;DHT22;5070;52.382;5.270;2024-03-23T16:08:39;21.10;62.80
10062;DHT22;5070;52.382;5.270;2024-03-23T16:11:07;21.00;61.00
10062;DHT22;5070;52.382;5.270;2024-03-23T16:13:34;21.00;60.00
10062;DHT22;5070;52.382;5.270;2024-03-23T16:16:02;21.00;59.60
10062;DHT22;5070;52.382;5.270;2024-03-23T16:18:32;21.00;59.20
10062;DHT22;5070;52.382;5.270;2024-03-23T16:21:00;20.90;59.00
10062;DHT22;5070;52.382;5.270;2024-03-23T16:23:28;20.90;58.70
10062;DHT22;5070;52.382;5.270;2024-03-23T16:25:55;20.80;58.30
10062;DHT22;5070;52.382;5.270;2024-03-23T16:28:26;20.80;58.50
10062;DHT22;5070;52.382;5.270;2024-03-23T16:30:55;20.80;58.40
10062;DHT22;5070;52.382;5.270;2024-03-23T16:33:24;20.80;58.20
10062;DHT22;5070;52.382;5.270;2024-03-23T16:36:00;20.80;58.30
10062;DHT22;5070;52.382;5.270;2024-03-23T16:38:28;20.80;58.40
10062;DHT22;5070;52.382;5.270;2024-03-23T16:40:58;20.80;58.50
10062;DHT22;5070;52.382;5.270;2024-03-23T16:43:28;20.90;58.30